sensor_id;sensor_type;location;lat;lon;timestamp;pressure;altitude;pressure_sealevel;temperature;humidity
59009;BME280;44794;42.652;23.318;2023-02-26T00:01:24;93393.88;;;14.03;43.70
59009;BME280;44794;42.652;23.318;2023-02-26T00:03:51;93389.13;;;13.91;43.19
59009;BME280;44794;42.652;23.318;2023-02-26T00:06:16;93351.94;;;14.05;42.23
59009;BME280;44794;42.652;23.318;2023-02-26T00:08:42;93387.50;;;14.06;42.17
59009;BME280;44794;42.652;23.318;2023-02-26T00:11:08;93393.88;;;14.03;42.53
59009;BME280;44794;42.652;23.318;2023-02-26T00:13:35;93395.97;;;14.08;42.43
59009;BME280;44794;42.652;23.318;2023-02-26T00:16:01;93347.03;;;14.10;41.61
59009;BME280;44794;42.652;23.318;2023-02-26T00:18:27;93357.50;;;14.26;40.65
59009;BME280;44794;42.652;23.318;2023-02-26T00:20:53;93348.69;;;14.11;42.64
59009;BME280;44794;42.652;23.318;2023-02-26T00:23:19;93375.47;;;14.13;40.46
59009;BME280;44794;42.652;23.318;2023-02-26T00:25:45;93363.03;;;14.15;41.54
59009;BME280;44794;42.652;23.318;2023-02-26T00:28:12;93353.22;;;14.09;41.63
59009;BME280;44794;42.652;23.318;2023-02-26T00:30:38;93379.34;;;14.09;41.57
59009;BME280;44794;42.652;23.318;2023-02-26T00:33:04;93352.44;;;14.08;41.19
59009;BME280;44794;42.652;23.318;2023-02-26T00:35:30;93357.97;;;14.05;41.78
59009;BME280;44794;42.652;23.318;2023-02-26T00:38:09;93363.03;;;14.07;42.19
59009;BME280;44794;42.652;23.318;2023-02-26T00:40:45;93353.41;;;13.99;42.03
59009;BME280;44794;42.652;23.318;2023-02-26T00:45:55;93310.00;;;13.98;40.91
59009;BME280;44794;42.652;23.318;2023-02-26T00:53:46;93299.06;;;14.03;40.57
59009;BME280;44794;42.652;23.318;2023-02-26T00:56:14;93348.19;;;14.07;40.56
59009;BME280;44794;42.652;23.318;2023-02-26T00:58:39;93340.19;;;14.25;37.28
59009;BME280;44794;42.652;23.318;2023-02-26T01:01:05;93333.44;;;14.62;38.19
59009;BME280;44794;42.652;23.318;2023-02-26T01:03:31;93325.81;;;14.44;39.02
59009;BME280;44794;42.652;23.318;2023-02-26T01:05:57;93350.66;;;14.25;40.27
59009;BME280;44794;42.652;23.318;2023-02-26T01:10:54;93331.56;;;14.24;39.24
59009;BME280;44794;42.652;23.318;2023-02-26T01:13:19;93343.00;;;14.23;39.57
59009;BME280;44794;42.652;23.318;2023-02-26T01:15:49;93303.16;;;14.21;39.88
59009;BME280;44794;42.652;23.318;2023-02-26T01:18:20;93308.03;;;14.08;40.24
59009;BME280;44794;42.652;23.318;2023-02-26T01:20:53;93311.16;;;13.96;41.26
59009;BME280;44794;42.652;23.318;2023-02-26T01:23:24;93326.50;;;13.91;41.01
59009;BME280;44794;42.652;23.318;2023-02-26T01:25:56;93289.59;;;13.94;41.14
59009;BME280;44794;42.652;23.318;2023-02-26T01:28:23;93315.06;;;13.92;41.12
59009;BME280;44794;42.652;23.318;2023-02-26T01:30:56;93303.00;;;13.91;41.67
59009;BME280;44794;42.652;23.318;2023-02-26T01:33:30;93272.97;;;13.87;41.48
59009;BME280;44794;42.652;23.318;2023-02-26T01:36:07;93260.28;;;13.76;42.26
59009;BME280;44794;42.652;23.318;2023-02-26T01:38:56;93273.63;;;13.73;41.33
59009;BME280;44794;42.652;23.318;2023-02-26T01:41:32;93298.59;;;13.83;41.41
59009;BME280;44794;42.652;23.318;2023-02-26T01:46:56;93267.78;;;13.79;41.41
59009;BME280;44794;42.652;23.318;2023-02-26T01:49:25;93277.88;;;13.74;41.47
59009;BME280;44794;42.652;23.318;2023-02-26T01:51:57;93281.50;;;13.65;41.77
59009;BME280;44794;42.652;23.318;2023-02-26T01:54:28;93269.25;;;13.65;41.14
59009;BME280;44794;42.652;23.318;2023-02-26T01:57:14;93263.84;;;13.75;40.81
59009;BME280;44794;42.652;23.318;2023-02-26T01:59:44;93242.19;;;13.66;41.04
59009;BME280;44794;42.652;23.318;2023-02-26T02:02:12;93241.03;;;13.61;40.92
59009;BME280;44794;42.652;23.318;2023-02-26T02:04:39;93235.34;;;13.57;41.01
59009;BME280;44794;42.652;23.318;2023-02-26T02:07:06;93236.78;;;13.52;40.95
59009;BME280;44794;42.652;23.318;2023-02-26T02:09:32;93231.44;;;13.53;40.86
59009;BME280;44794;42.652;23.318;2023-02-26T02:14:40;93224.91;;;13.65;39.83
59009;BME280;44794;42.652;23.318;2023-02-26T02:17:15;93234.19;;;13.60;39.94
59009;BME280;44794;42.652;23.318;2023-02-26T02:28:05;93242.84;;;13.68;39.40
59009;BME280;44794;42.652;23.318;2023-02-26T02:33:27;93234.84;;;13.70;39.29
59009;BME280;44794;42.652;23.318;2023-02-26T02:36:00;93214.28;;;13.75;39.01
59009;BME280;44794;42.652;23.318;2023-02-26T02:38:45;93255.72;;;13.70;39.49
59009;BME280;44794;42.652;23.318;2023-02-26T02:41:26;93240.06;;;13.70;39.28
59009;BME280;44794;42.652;23.318;2023-02-26T02:43:54;93281.31;;;13.74;38.69
59009;BME280;44794;42.652;23.318;2023-02-26T02:46:26;93242.66;;;13.78;38.98
59009;BME280;44794;42.652;23.318;2023-02-26T02:49:06;93256.38;;;13.72;39.19
59009;BME280;44794;42.652;23.318;2023-02-26T02:51:36;93237.63;;;13.68;39.47
59009;BME280;44794;42.652;23.318;2023-02-26T02:54:14;93249.03;;;13.67;39.34
59009;BME280;44794;42.652;23.318;2023-02-26T02:56:45;93297.28;;;13.71;39.31
59009;BME280;44794;42.652;23.318;2023-02-26T02:59:30;93243.78;;;13.83;38.29
59009;BME280;44794;42.652;23.318;2023-02-26T03:02:06;93265.50;;;13.76;38.88
59009;BME280;44794;42.652;23.318;2023-02-26T03:04:34;93268.28;;;13.66;39.32
59009;BME280;44794;42.652;23.318;2023-02-26T03:07:00;93263.53;;;13.62;39.67
59009;BME280;44794;42.652;23.318;2023-02-26T03:09:25;93258.63;;;13.59;39.64
59009;BME280;44794;42.652;23.318;2023-02-26T03:11:51;93259.47;;;13.59;39.44
59009;BME280;44794;42.652;23.318;2023-02-26T03:14:16;93265.19;;;13.63;39.17
59009;BME280;44794;42.652;23.318;2023-02-26T03:22:14;93255.53;;;13.55;39.12
59009;BME280;44794;42.652;23.318;2023-02-26T03:24:50;93254.06;;;13.53;38.87
59009;BME280;44794;42.652;23.318;2023-02-26T03:27:34;93272.34;;;13.53;39.28
59009;BME280;44794;42.652;23.318;2023-02-26T03:32:52;93261.41;;;13.57;38.81
59009;BME280;44794;42.652;23.318;2023-02-26T03:35:32;93256.69;;;13.61;38.80
59009;BME280;44794;42.652;23.318;2023-02-26T03:38:03;93252.94;;;13.63;38.89
59009;BME280;44794;42.652;23.318;2023-02-26T03:40:38;93268.25;;;13.58;38.71
59009;BME280;44794;42.652;23.318;2023-02-26T03:43:15;93244.47;;;13.53;38.72
59009;BME280;44794;42.652;23.318;2023-02-26T03:45:44;93263.84;;;13.59;38.74
59009;BME280;44794;42.652;23.318;2023-02-26T03:48:15;93247.22;;;13.52;39.10
59009;BME280;44794;42.652;23.318;2023-02-26T03:50:53;93258.00;;;13.49;39.57
59009;BME280;44794;42.652;23.318;2023-02-26T03:53:24;93230.47;;;13.47;39.49
59009;BME280;44794;42.652;23.318;2023-02-26T03:56:00;93228.66;;;13.47;39.38
59009;BME280;44794;42.652;23.318;2023-02-26T03:58:28;93234.19;;;13.60;38.98
59009;BME280;44794;42.652;23.318;2023-02-26T04:00:59;93263.84;;;13.59;39.15
59009;BME280;44794;42.652;23.318;2023-02-26T04:03:36;93245.63;;;13.51;39.58
59009;BME280;44794;42.652;23.318;2023-02-26T04:06:04;93235.31;;;13.49;39.99
59009;BME280;44794;42.652;23.318;2023-02-26T04:08:30;93214.81;;;13.54;39.41
59009;BME280;44794;42.652;23.318;2023-02-26T04:10:59;93219.69;;;13.49;39.64
59009;BME280;44794;42.652;23.318;2023-02-26T04:13:28;93203.41;;;13.48;39.68
59009;BME280;44794;42.652;23.318;2023-02-26T04:15:53;93226.69;;;13.49;39.83
59009;BME280;44794;42.652;23.318;2023-02-26T04:18:19;93213.34;;;13.44;39.58
59009;BME280;44794;42.652;23.318;2023-02-26T04:20:44;93222.63;;;13.54;39.16
59009;BME280;44794;42.652;23.318;2023-02-26T04:23:10;93233.69;;;13.56;39.15
59009;BME280;44794;42.652;23.318;2023-02-26T04:25:35;93234.19;;;13.52;38.90
59009;BME280;44794;42.652;23.318;2023-02-26T04:28:01;93213.97;;;13.54;39.16
59009;BME280;44794;42.652;23.318;2023-02-26T04:30:27;93203.22;;;13.57;38.66
59009;BME280;44794;42.652;23.318;2023-02-26T04:32:52;93186.13;;;13.54;38.75
59009;BME280;44794;42.652;23.318;2023-02-26T04:35:18;93224.25;;;13.71;38.48
59009;BME280;44794;42.652;23.318;2023-02-26T04:37:43;93187.09;;;13.61;38.69
59009;BME280;44794;42.652;23.318;2023-02-26T04:40:09;93197.34;;;13.63;38.40
59009;BME280;44794;42.652;23.318;2023-02-26T04:42:35;93215.25;;;13.66;38.25
59009;BME280;44794;42.652;23.318;2023-02-26T04:45:00;93218.22;;;13.63;38.24
59009;BME280;44794;42.652;23.318;2023-02-26T04:47:26;93202.88;;;13.68;38.08
59009;BME280;44794;42.652;23.318;2023-02-26T04:49:51;93195.53;;;13.63;38.08
59009;BME280;44794;42.652;23.318;2023-02-26T04:52:17;93198.31;;;13.62;38.01
59009;BME280;44794;42.652;23.318;2023-02-26T04:54:42;93181.84;;;13.69;37.63
59009;BME280;44794;42.652;23.318;2023-02-26T04:57:07;93193.41;;;13.75;37.45
59009;BME280;44794;42.652;23.318;2023-02-26T04:59:33;93191.78;;;13.66;37.82
59009;BME280;44794;42.652;23.318;2023-02-26T05:01:58;93179.72;;;13.73;37.14
59009;BME280;44794;42.652;23.318;2023-02-26T05:04:24;93200.25;;;13.84;36.68
59009;BME280;44794;42.652;23.318;2023-02-26T05:06:49;93164.31;;;14.02;36.77
59009;BME280;44794;42.652;23.318;2023-02-26T05:09:15;93153.88;;;14.02;36.51
59009;BME280;44794;42.652;23.318;2023-02-26T05:11:40;93144.59;;;13.99;36.56
59009;BME280;44794;42.652;23.318;2023-02-26T05:14:06;93131.53;;;14.15;36.04
59009;BME280;44794;42.652;23.318;2023-02-26T05:16:31;93158.78;;;14.13;36.17
59009;BME280;44794;42.652;23.318;2023-02-26T05:18:57;93162.84;;;14.15;36.41
59009;BME280;44794;42.652;23.318;2023-02-26T05:21:22;93177.34;;;14.10;36.61
59009;BME280;44794;42.652;23.318;2023-02-26T05:23:47;93165.97;;;14.11;36.56
59009;BME280;44794;42.652;23.318;2023-02-26T05:26:13;93182.25;;;14.05;36.54
59009;BME280;44794;42.652;23.318;2023-02-26T05:28:38;93159.44;;;14.07;36.62
59009;BME280;44794;42.652;23.318;2023-02-26T05:31:04;93184.69;;;14.06;36.85
59009;BME280;44794;42.652;23.318;2023-02-26T05:33:31;93157.44;;;14.09;36.67
59009;BME280;44794;42.652;23.318;2023-02-26T05:35:56;93127.75;;;14.18;36.61
59009;BME280;44794;42.652;23.318;2023-02-26T05:38:22;93121.38;;;14.20;36.52
59009;BME280;44794;42.652;23.318;2023-02-26T05:40:47;93144.53;;;14.23;36.56
59009;BME280;44794;42.652;23.318;2023-02-26T05:43:13;93128.00;;;14.30;36.41
59009;BME280;44794;42.652;23.318;2023-02-26T05:45:38;93135.53;;;14.33;36.38
59009;BME280;44794;42.652;23.318;2023-02-26T05:48:04;93131.28;;;14.32;36.20
59009;BME280;44794;42.652;23.318;2023-02-26T05:50:29;93133.34;;;14.45;35.98
59009;BME280;44794;42.652;23.318;2023-02-26T05:52:55;93135.41;;;14.49;35.86
59009;BME280;44794;42.652;23.318;2023-02-26T05:55:21;93140.31;;;14.52;35.50
59009;BME280;44794;42.652;23.318;2023-02-26T05:57:47;93110.59;;;14.53;35.66
59009;BME280;44794;42.652;23.318;2023-02-26T06:00:13;93122.03;;;14.52;35.83
59009;BME280;44794;42.652;23.318;2023-02-26T06:02:39;93111.41;;;14.54;35.61
59009;BME280;44794;42.652;23.318;2023-02-26T06:05:06;93100.94;;;14.54;35.55
59009;BME280;44794;42.652;23.318;2023-02-26T06:07:31;93134.06;;;14.61;35.34
59009;BME280;44794;42.652;23.318;2023-02-26T06:09:57;93154.94;;;14.69;35.25
59009;BME280;44794;42.652;23.318;2023-02-26T06:12:22;93134.66;;;14.71;35.32
59009;BME280;44794;42.652;23.318;2023-02-26T06:14:47;93128.72;;;14.77;35.23
59009;BME280;44794;42.652;23.318;2023-02-26T06:17:13;93150.22;;;14.87;35.00
59009;BME280;44794;42.652;23.318;2023-02-26T06:19:38;93129.56;;;15.00;34.17
59009;BME280;44794;42.652;23.318;2023-02-26T06:22:04;93139.91;;;15.16;33.97
59009;BME280;44794;42.652;23.318;2023-02-26T06:24:29;93147.84;;;15.22;34.28
59009;BME280;44794;42.652;23.318;2023-02-26T06:26:55;93133.28;;;15.28;34.11
59009;BME280;44794;42.652;23.318;2023-02-26T06:29:20;93139.16;;;15.30;33.77
59009;BME280;44794;42.652;23.318;2023-02-26T06:31:47;93134.22;;;15.35;33.86
59009;BME280;44794;42.652;23.318;2023-02-26T06:34:13;93154.97;;;15.36;33.48
59009;BME280;44794;42.652;23.318;2023-02-26T06:36:38;93118.97;;;15.38;33.60
59009;BME280;44794;42.652;23.318;2023-02-26T06:39:04;93160.69;;;15.40;33.58
59009;BME280;44794;42.652;23.318;2023-02-26T06:41:29;93135.59;;;15.45;33.53
59009;BME280;44794;42.652;23.318;2023-02-26T06:43:55;93109.09;;;15.48;33.80
59009;BME280;44794;42.652;23.318;2023-02-26T06:46:20;93086.19;;;15.50;33.17
59009;BME280;44794;42.652;23.318;2023-02-26T06:48:46;93125.25;;;15.52;32.94
59009;BME280;44794;42.652;23.318;2023-02-26T06:51:11;93121.72;;;15.59;32.92
59009;BME280;44794;42.652;23.318;2023-02-26T06:53:37;93102.69;;;15.65;32.49
59009;BME280;44794;42.652;23.318;2023-02-26T06:56:02;93090.78;;;15.63;32.54
59009;BME280;44794;42.652;23.318;2023-02-26T06:58:28;93074.72;;;15.66;32.65
59009;BME280;44794;42.652;23.318;2023-02-26T07:00:53;93067.88;;;15.65;32.53
59009;BME280;44794;42.652;23.318;2023-02-26T07:03:19;93081.22;;;15.70;32.59
59009;BME280;44794;42.652;23.318;2023-02-26T07:05:45;93110.56;;;15.79;32.34
59009;BME280;44794;42.652;23.318;2023-02-26T07:08:11;93066.97;;;15.86;32.03
59009;BME280;44794;42.652;23.318;2023-02-26T07:10:37;93079.06;;;15.87;32.37
59009;BME280;44794;42.652;23.318;2023-02-26T07:13:03;93071.84;;;15.89;32.59
59009;BME280;44794;42.652;23.318;2023-02-26T07:15:29;93086.84;;;15.95;32.49
59009;BME280;44794;42.652;23.318;2023-02-26T07:17:54;93072.38;;;15.99;32.73
59009;BME280;44794;42.652;23.318;2023-02-26T07:20:20;93071.19;;;16.02;32.39
59009;BME280;44794;42.652;23.318;2023-02-26T07:22:47;93064.44;;;16.07;32.13
59009;BME280;44794;42.652;23.318;2023-02-26T07:25:13;93046.81;;;16.16;31.87
59009;BME280;44794;42.652;23.318;2023-02-26T07:27:38;93076.09;;;16.34;31.74
59009;BME280;44794;42.652;23.318;2023-02-26T07:30:05;93071.78;;;16.47;32.01
59009;BME280;44794;42.652;23.318;2023-02-26T07:32:32;93081.56;;;16.39;31.63
59009;BME280;44794;42.652;23.318;2023-02-26T07:34:57;93088.53;;;16.32;31.36
59009;BME280;44794;42.652;23.318;2023-02-26T07:37:23;93086.44;;;16.27;31.21
59009;BME280;44794;42.652;23.318;2023-02-26T07:39:49;93076.53;;;16.37;31.00
59009;BME280;44794;42.652;23.318;2023-02-26T07:42:15;93070.31;;;16.59;30.93
59009;BME280;44794;42.652;23.318;2023-02-26T07:44:40;93094.81;;;16.52;30.99
59009;BME280;44794;42.652;23.318;2023-02-26T07:47:07;93058.66;;;16.61;30.75
59009;BME280;44794;42.652;23.318;2023-02-26T07:49:32;93065.50;;;16.62;30.72
59009;BME280;44794;42.652;23.318;2023-02-26T07:51:59;93093.78;;;16.67;30.45
59009;BME280;44794;42.652;23.318;2023-02-26T07:54:24;93070.84;;;16.69;30.76
59009;BME280;44794;42.652;23.318;2023-02-26T07:56:50;93097.63;;;16.85;30.34
59009;BME280;44794;42.652;23.318;2023-02-26T07:59:15;93077.06;;;16.89;30.10
59009;BME280;44794;42.652;23.318;2023-02-26T08:01:41;93110.06;;;16.98;29.91
59009;BME280;44794;42.652;23.318;2023-02-26T08:04:06;93101.19;;;16.99;29.44
59009;BME280;44794;42.652;23.318;2023-02-26T08:06:32;93119.47;;;17.13;29.83
59009;BME280;44794;42.652;23.318;2023-02-26T08:08:59;93122.78;;;17.01;30.06
59009;BME280;44794;42.652;23.318;2023-02-26T08:11:25;93107.88;;;17.01;29.67
59009;BME280;44794;42.652;23.318;2023-02-26T08:13:50;93115.78;;;17.08;30.04
59009;BME280;44794;42.652;23.318;2023-02-26T08:16:16;93093.22;;;17.07;30.21
59009;BME280;44794;42.652;23.318;2023-02-26T08:18:42;93148.78;;;17.17;30.09
59009;BME280;44794;42.652;23.318;2023-02-26T08:21:07;93135.47;;;17.18;29.89
59009;BME280;44794;42.652;23.318;2023-02-26T08:23:33;93117.50;;;17.15;29.81
59009;BME280;44794;42.652;23.318;2023-02-26T08:26:00;93116.03;;;17.27;29.65
59009;BME280;44794;42.652;23.318;2023-02-26T08:28:26;93142.78;;;17.23;29.65
59009;BME280;44794;42.652;23.318;2023-02-26T08:30:52;93175.31;;;17.42;29.74
59009;BME280;44794;42.652;23.318;2023-02-26T08:33:17;93163.84;;;17.71;29.59
59009;BME280;44794;42.652;23.318;2023-02-26T08:35:43;93135.00;;;17.50;28.90
59009;BME280;44794;42.652;23.318;2023-02-26T08:38:09;93137.19;;;17.46;29.43
59009;BME280;44794;42.652;23.318;2023-02-26T08:40:35;93147.16;;;17.57;29.14
59009;BME280;44794;42.652;23.318;2023-02-26T08:43:00;93154.63;;;17.54;29.46
59009;BME280;44794;42.652;23.318;2023-02-26T08:45:28;93173.06;;;17.60;29.00
59009;BME280;44794;42.652;23.318;2023-02-26T08:47:53;93173.94;;;17.67;28.36
59009;BME280;44794;42.652;23.318;2023-02-26T08:50:20;93144.94;;;17.54;28.92
59009;BME280;44794;42.652;23.318;2023-02-26T08:52:45;93169.31;;;17.48;29.04
59009;BME280;44794;42.652;23.318;2023-02-26T08:55:11;93180.50;;;17.57;28.61
59009;BME280;44794;42.652;23.318;2023-02-26T08:57:37;93199.69;;;17.57;29.07
59009;BME280;44794;42.652;23.318;2023-02-26T09:00:04;93177.75;;;17.65;28.43
59009;BME280;44794;42.652;23.318;2023-02-26T09:02:30;93189.59;;;17.82;28.42
59009;BME280;44794;42.652;23.318;2023-02-26T09:04:55;93167.13;;;17.73;28.79
59009;BME280;44794;42.652;23.318;2023-02-26T09:07:21;93193.41;;;17.79;28.30
59009;BME280;44794;42.652;23.318;2023-02-26T09:09:46;93206.41;;;17.87;28.46
59009;BME280;44794;42.652;23.318;2023-02-26T09:12:11;93207.88;;;18.17;27.78
59009;BME280;44794;42.652;23.318;2023-02-26T09:14:37;93205.50;;;18.22;27.68
59009;BME280;44794;42.652;23.318;2023-02-26T09:17:02;93184.53;;;18.28;27.45
59009;BME280;44794;42.652;23.318;2023-02-26T09:19:28;93213.31;;;18.43;27.32
59009;BME280;44794;42.652;23.318;2023-02-26T09:21:53;93245.88;;;18.76;26.82
59009;BME280;44794;42.652;23.318;2023-02-26T09:24:19;93181.59;;;18.84;26.45
59009;BME280;44794;42.652;23.318;2023-02-26T09:26:44;93177.16;;;18.91;26.42
59009;BME280;44794;42.652;23.318;2023-02-26T09:29:09;93194.56;;;18.92;26.42
59009;BME280;44794;42.652;23.318;2023-02-26T09:31:36;93217.97;;;19.15;26.07
59009;BME280;44794;42.652;23.318;2023-02-26T09:34:01;93267.16;;;19.14;25.65
59009;BME280;44794;42.652;23.318;2023-02-26T09:36:27;93202.38;;;19.13;26.02
59009;BME280;44794;42.652;23.318;2023-02-26T09:38:52;93221.06;;;19.31;26.10
59009;BME280;44794;42.652;23.318;2023-02-26T09:41:22;93213.25;;;19.63;25.75
59009;BME280;44794;42.652;23.318;2023-02-26T09:44:35;93221.50;;;19.41;25.58
59009;BME280;44794;42.652;23.318;2023-02-26T09:47:18;93259.03;;;19.62;25.14
59009;BME280;44794;42.652;23.318;2023-02-26T09:52:27;93212.50;;;19.16;26.07
59009;BME280;44794;42.652;23.318;2023-02-26T09:55:02;93210.63;;;19.04;25.86
59009;BME280;44794;42.652;23.318;2023-02-26T09:57:35;93202.03;;;19.29;25.92
59009;BME280;44794;42.652;23.318;2023-02-26T10:00:29;93238.81;;;19.16;26.29
59009;BME280;44794;42.652;23.318;2023-02-26T10:12:09;93222.94;;;18.97;27.30
59009;BME280;44794;42.652;23.318;2023-02-26T10:14:41;93191.78;;;19.00;27.06
59009;BME280;44794;42.652;23.318;2023-02-26T10:19:55;93158.31;;;18.88;27.20
59009;BME280;44794;42.652;23.318;2023-02-26T10:22:40;93168.75;;;18.69;27.20
59009;BME280;44794;42.652;23.318;2023-02-26T10:25:15;93179.94;;;18.77;27.59
59009;BME280;44794;42.652;23.318;2023-02-26T10:28:01;93158.34;;;18.48;27.24
59009;BME280;44794;42.652;23.318;2023-02-26T10:30:36;93154.22;;;18.32;27.73
59009;BME280;44794;42.652;23.318;2023-02-26T10:35:41;93143.81;;;18.52;27.55
59009;BME280;44794;42.652;23.318;2023-02-26T10:38:15;93126.53;;;18.36;27.98
59009;BME280;44794;42.652;23.318;2023-02-26T10:46:01;93133.59;;;18.08;28.25
59009;BME280;44794;42.652;23.318;2023-02-26T10:51:31;93117.19;;;18.00;28.42
59009;BME280;44794;42.652;23.318;2023-02-26T10:54:01;93140.16;;;18.19;28.37
59009;BME280;44794;42.652;23.318;2023-02-26T10:56:30;93137.09;;;18.15;27.95
59009;BME280;44794;42.652;23.318;2023-02-26T10:58:57;93079.47;;;18.08;28.23
59009;BME280;44794;42.652;23.318;2023-02-26T11:01:24;93096.81;;;18.02;28.83
59009;BME280;44794;42.652;23.318;2023-02-26T11:03:55;93121.44;;;18.01;29.37
59009;BME280;44794;42.652;23.318;2023-02-26T11:06:35;93116.84;;;18.09;29.25
59009;BME280;44794;42.652;23.318;2023-02-26T11:09:04;93103.06;;;18.01;29.65
59009;BME280;44794;42.652;23.318;2023-02-26T11:11:36;93079.06;;;18.10;29.44
59009;BME280;44794;42.652;23.318;2023-02-26T11:14:03;93083.28;;;18.05;29.34
59009;BME280;44794;42.652;23.318;2023-02-26T11:16:28;93091.56;;;18.08;28.52
59009;BME280;44794;42.652;23.318;2023-02-26T11:18:57;93081.63;;;17.98;29.04
59009;BME280;44794;42.652;23.318;2023-02-26T11:21:28;93070.69;;;17.94;29.07
59009;BME280;44794;42.652;23.318;2023-02-26T11:24:01;93120.22;;;17.97;29.71
59009;BME280;44794;42.652;23.318;2023-02-26T11:26:31;93107.59;;;17.86;29.82
59009;BME280;44794;42.652;23.318;2023-02-26T11:28:58;93110.19;;;17.80;29.59
59009;BME280;44794;42.652;23.318;2023-02-26T11:31:25;93092.69;;;17.59;30.28
59009;BME280;44794;42.652;23.318;2023-02-26T11:34:01;93083.81;;;17.60;30.46
59009;BME280;44794;42.652;23.318;2023-02-26T11:36:28;93105.38;;;17.56;30.66
59009;BME280;44794;42.652;23.318;2023-02-26T11:39:01;93122.44;;;17.45;30.98
59009;BME280;44794;42.652;23.318;2023-02-26T11:41:29;93101.69;;;17.50;31.11
59009;BME280;44794;42.652;23.318;2023-02-26T11:44:06;93113.06;;;17.36;31.39
59009;BME280;44794;42.652;23.318;2023-02-26T11:46:58;93132.75;;;17.47;31.50
59009;BME280;44794;42.652;23.318;2023-02-26T11:49:26;93149.31;;;17.68;31.49
59009;BME280;44794;42.652;23.318;2023-02-26T11:54:38;93178.94;;;17.41;32.09
59009;BME280;44794;42.652;23.318;2023-02-26T11:57:24;93198.19;;;17.28;32.88
59009;BME280;44794;42.652;23.318;2023-02-26T11:59:52;93191.59;;;17.17;33.15
59009;BME280;44794;42.652;23.318;2023-02-26T12:02:21;93205.88;;;17.29;34.12
59009;BME280;44794;42.652;23.318;2023-02-26T12:04:52;93185.94;;;17.34;34.53
59009;BME280;44794;42.652;23.318;2023-02-26T12:07:21;93176.75;;;17.45;34.38
59009;BME280;44794;42.652;23.318;2023-02-26T12:09:47;93204.56;;;17.60;34.48
59009;BME280;44794;42.652;23.318;2023-02-26T12:12:38;93182.13;;;17.58;34.65
59009;BME280;44794;42.652;23.318;2023-02-26T12:20:51;93205.56;;;17.38;32.84
59009;BME280;44794;42.652;23.318;2023-02-26T12:26:49;93217.63;;;17.19;34.30
59009;BME280;44794;42.652;23.318;2023-02-26T12:38:07;93243.38;;;17.44;35.72
59009;BME280;44794;42.652;23.318;2023-02-26T12:43:43;93269.56;;;17.79;35.90
59009;BME280;44794;42.652;23.318;2023-02-26T12:46:31;93266.25;;;17.92;36.08
59009;BME280;44794;42.652;23.318;2023-02-26T12:49:24;93258.25;;;18.00;34.78
59009;BME280;44794;42.652;23.318;2023-02-26T12:52:22;93251.66;;;18.10;33.15
59009;BME280;44794;42.652;23.318;2023-02-26T12:57:45;93278.94;;;18.30;34.00
59009;BME280;44794;42.652;23.318;2023-02-26T13:03:03;93271.81;;;18.03;34.00
59009;BME280;44794;42.652;23.318;2023-02-26T13:17:17;93281.69;;;17.24;35.79
59009;BME280;44794;42.652;23.318;2023-02-26T13:19:52;93286.94;;;17.24;36.58
59009;BME280;44794;42.652;23.318;2023-02-26T13:22:25;93287.91;;;17.37;37.02
59009;BME280;44794;42.652;23.318;2023-02-26T13:25:02;93283.53;;;17.44;36.80
59009;BME280;44794;42.652;23.318;2023-02-26T13:27:34;93257.25;;;17.59;36.36
59009;BME280;44794;42.652;23.318;2023-02-26T13:30:24;93262.81;;;17.70;36.54
59009;BME280;44794;42.652;23.318;2023-02-26T13:32:53;93249.03;;;18.10;35.33
59009;BME280;44794;42.652;23.318;2023-02-26T13:35:36;93274.75;;;18.35;34.71
59009;BME280;44794;42.652;23.318;2023-02-26T13:41:19;93249.72;;;18.73;34.10
59009;BME280;44794;42.652;23.318;2023-02-26T13:44:14;93247.09;;;18.73;33.94
59009;BME280;44794;42.652;23.318;2023-02-26T13:50:04;93231.09;;;18.41;33.77
59009;BME280;44794;42.652;23.318;2023-02-26T13:52:49;93243.06;;;17.95;34.77
59009;BME280;44794;42.652;23.318;2023-02-26T13:55:35;93241.06;;;17.76;34.12
59009;BME280;44794;42.652;23.318;2023-02-26T13:58:16;93245.88;;;17.73;34.50
59009;BME280;44794;42.652;23.318;2023-02-26T14:00:56;93232.00;;;17.58;34.68
59009;BME280;44794;42.652;23.318;2023-02-26T14:06:34;93235.66;;;17.84;34.60
59009;BME280;44794;42.652;23.318;2023-02-26T14:08:46;93222.81;;;17.68;34.31
59009;BME280;44794;42.652;23.318;2023-02-26T14:13:41;93241.50;;;17.80;33.32
59009;BME280;44794;42.652;23.318;2023-02-26T14:16:22;93249.03;;;18.10;32.36
59009;BME280;44794;42.652;23.318;2023-02-26T14:18:50;93237.09;;;18.08;32.43
59009;BME280;44794;42.652;23.318;2023-02-26T14:23:58;93249.31;;;17.94;31.74
59009;BME280;44794;42.652;23.318;2023-02-26T14:26:28;93261.75;;;17.86;32.41
59009;BME280;44794;42.652;23.318;2023-02-26T14:32:04;93245.94;;;17.58;32.60
59009;BME280;44794;42.652;23.318;2023-02-26T14:34:33;93271.81;;;17.40;32.79
59009;BME280;44794;42.652;23.318;2023-02-26T14:37:07;93250.28;;;17.31;32.96
59009;BME280;44794;42.652;23.318;2023-02-26T14:39:48;93277.97;;;17.19;33.70
59009;BME280;44794;42.652;23.318;2023-02-26T14:48:06;93262.06;;;17.06;33.66
59009;BME280;44794;42.652;23.318;2023-02-26T14:55:56;93275.13;;;16.85;34.18
59009;BME280;44794;42.652;23.318;2023-02-26T15:04:04;93297.34;;;16.60;34.73
59009;BME280;44794;42.652;23.318;2023-02-26T15:09:20;93285.78;;;16.69;34.11
59009;BME280;44794;42.652;23.318;2023-02-26T15:23:49;93316.97;;;16.27;36.35
59009;BME280;44794;42.652;23.318;2023-02-26T15:26:28;93317.69;;;16.21;36.82
59009;BME280;44794;42.652;23.318;2023-02-26T15:28:56;93324.34;;;16.09;37.82
59009;BME280;44794;42.652;23.318;2023-02-26T15:31:40;93320.22;;;15.92;38.99
59009;BME280;44794;42.652;23.318;2023-02-26T15:34:10;93314.28;;;15.76;39.62